Time;durP1;ratioP1;P1;durP2;ratioP2;P2;SDS_P1;SDS_P2;PMS_P1;PMS_P2;Temp;Humidity;BMP_temperature;BMP_pressure;BME280_temperature;BME280_humidity;BME280_pressure;Samples;Min_cycle;Max_cycle;Signal;HPM_P1;HPM_P2
2023/03/09 00:00:29;;;;;;;12.18;7.20;;;;;;;;;;4890895;29;20085;-75
2023/03/09 00:02:55;;;;;;;16.27;8.80;;;;;;;;;;4874117;29;20029;-75
2023/03/09 00:05:21;;;;;;;14.95;7.90;;;;;;;;;;4878986;29;20096;-76
2023/03/09 00:07:47;;;;;;;14.60;8.00;;;;;;;;;;4884766;29;20036;-76
2023/03/09 00:10:14;;;;;;;13.05;7.80;;;;;;;;;;4882352;29;20033;-75
2023/03/09 00:12:40;;;;;;;12.98;7.05;;;;;;;;;;4874278;29;20045;-76
2023/03/09 00:15:09;;;;;;;11.38;7.38;;;;;;;;;;4877486;29;20161;-76
2023/03/09 00:17:36;;;;;;;12.23;7.05;;;;;;;;;;4870467;29;20032;-76
2023/03/09 00:20:14;;;;;;;14.25;8.23;;;;;;;;;;4872515;29;20028;-76
2023/03/09 00:22:47;;;;;;;19.48;7.38;;;;;;;;;;4876614;29;20036;-75
2023/03/09 00:25:14;;;;;;;22.27;10.55;;;;;;;;;;4871058;29;20025;-76
2023/03/09 00:27:44;;;;;;;13.18;8.73;;;;;;;;;;4878694;29;20021;-76
2023/03/09 00:30:11;;;;;;;19.00;8.52;;;;;;;;;;4871318;29;20132;-77
2023/03/09 00:32:37;;;;;;;15.18;8.57;;;;;;;;;;4873305;29;20050;-76
2023/03/09 00:35:04;;;;;;;16.75;9.23;;;;;;;;;;4871001;29;20041;-77
2023/03/09 00:37:30;;;;;;;13.77;8.18;;;;;;;;;;4873817;29;20112;-77
2023/03/09 00:39:56;;;;;;;12.95;7.63;;;;;;;;;;4867309;29;20085;-76
2023/03/09 00:42:22;;;;;;;16.20;8.43;;;;;;;;;;4874839;29;20025;-77
2023/03/09 00:44:50;;;;;;;17.98;8.80;;;;;;;;;;4879913;29;20032;-77
2023/03/09 00:47:17;;;;;;;14.57;7.78;;;;;;;;;;4871636;29;20028;-78
2023/03/09 00:49:43;;;;;;;16.33;8.02;;;;;;;;;;4880142;29;20391;-77
2023/03/09 00:52:09;;;;;;;18.85;8.88;;;;;;;;;;4879100;29;20116;-78
2023/03/09 00:54:35;;;;;;;14.98;8.50;;;;;;;;;;4876313;29;20032;-77
2023/03/09 00:57:02;;;;;;;17.25;8.73;;;;;;;;;;4876067;29;20052;-78
2023/03/09 00:59:28;;;;;;;13.10;7.80;;;;;;;;;;4875818;29;20479;-77
2023/03/09 01:01:54;;;;;;;16.23;8.10;;;;;;;;;;4872737;29;20108;-77
2023/03/09 01:04:20;;;;;;;16.08;8.70;;;;;;;;;;4877755;29;20028;-78
2023/03/09 01:06:46;;;;;;;13.30;7.55;;;;;;;;;;4876636;29;20364;-77
2023/03/09 01:09:12;;;;;;;14.52;8.20;;;;;;;;;;4872362;29;20040;-76
2023/03/09 01:11:38;;;;;;;16.98;8.10;;;;;;;;;;4863911;29;20037;-77
2023/03/09 01:14:04;;;;;;;8.65;6.35;;;;;;;;;;4870727;29;20499;-77
2023/03/09 01:16:30;;;;;;;16.30;8.32;;;;;;;;;;4859770;29;20401;-77
2023/03/09 01:18:56;;;;;;;12.35;7.43;;;;;;;;;;4871122;29;20120;-77
2023/03/09 01:21:22;;;;;;;16.48;9.18;;;;;;;;;;4868060;29;20040;-77
2023/03/09 01:23:48;;;;;;;14.80;7.85;;;;;;;;;;4874049;29;20196;-76
2023/03/09 01:26:15;;;;;;;19.95;9.13;;;;;;;;;;4873037;29;20515;-77
2023/03/09 01:28:41;;;;;;;20.60;10.15;;;;;;;;;;4871574;29;20450;-77
2023/03/09 01:31:10;;;;;;;14.85;7.90;;;;;;;;;;4870474;29;20673;-78
2023/03/09 01:33:37;;;;;;;17.67;9.18;;;;;;;;;;4864918;29;20510;-77
2023/03/09 01:36:04;;;;;;;13.63;7.85;;;;;;;;;;4872162;29;20041;-77
2023/03/09 01:38:30;;;;;;;18.70;9.07;;;;;;;;;;4875788;29;20033;-76
2023/03/09 01:40:57;;;;;;;17.35;8.73;;;;;;;;;;4872695;29;20601;-77
2023/03/09 01:43:29;;;;;;;19.17;8.07;;;;;;;;;;4871338;29;20115;-77
2023/03/09 01:46:14;;;;;;;17.88;8.52;;;;;;;;;;4880018;29;20654;-77
2023/03/09 01:48:40;;;;;;;19.58;11.00;;;;;;;;;;4873799;29;20032;-77
2023/03/09 01:51:06;;;;;;;21.23;10.30;;;;;;;;;;4873856;29;20111;-77
2023/03/09 01:53:33;;;;;;;16.33;9.18;;;;;;;;;;4874209;29;20032;-76
2023/03/09 01:55:59;;;;;;;15.48;8.88;;;;;;;;;;4874520;29;20056;-76
2023/03/09 01:58:27;;;;;;;20.00;8.55;;;;;;;;;;4879497;29;20028;-76
2023/03/09 02:00:54;;;;;;;19.05;10.02;;;;;;;;;;4875769;29;20419;-77
2023/03/09 02:03:25;;;;;;;24.77;11.95;;;;;;;;;;4871083;29;20036;-77
2023/03/09 02:06:18;;;;;;;27.65;11.77;;;;;;;;;;4871846;29;20025;-77
2023/03/09 02:08:56;;;;;;;19.95;11.23;;;;;;;;;;4858561;29;20120;-77
2023/03/09 02:11:22;;;;;;;17.35;8.73;;;;;;;;;;4870042;29;20029;-76
2023/03/09 02:13:50;;;;;;;17.63;9.18;;;;;;;;;;4874997;29;20546;-76
2023/03/09 02:16:16;;;;;;;14.95;7.95;;;;;;;;;;4877931;29;20032;-77
2023/03/09 02:18:42;;;;;;;12.00;7.18;;;;;;;;;;4869206;29;20030;-76
2023/03/09 02:21:17;;;;;;;13.52;8.27;;;;;;;;;;4879566;29;20104;-76
2023/03/09 02:24:02;;;;;;;15.07;7.75;;;;;;;;;;4871382;29;20051;-76
2023/03/09 02:26:39;;;;;;;14.00;8.10;;;;;;;;;;4880783;29;20201;-77
2023/03/09 02:29:05;;;;;;;15.40;8.35;;;;;;;;;;4881432;29;20059;-76
2023/03/09 02:31:32;;;;;;;17.63;9.70;;;;;;;;;;4869924;29;20048;-75
2023/03/09 02:33:58;;;;;;;19.83;8.60;;;;;;;;;;4867574;29;20134;-77
2023/03/09 02:36:25;;;;;;;15.52;8.25;;;;;;;;;;4863226;29;20671;-76
2023/03/09 02:38:51;;;;;;;15.20;8.75;;;;;;;;;;4876691;29;20360;-77
2023/03/09 02:41:18;;;;;;;17.25;8.88;;;;;;;;;;4869397;29;20112;-76
2023/03/09 02:43:46;;;;;;;13.30;7.97;;;;;;;;;;4864465;29;20013;-76
2023/03/09 02:46:12;;;;;;;15.90;8.02;;;;;;;;;;4873343;29;20392;-77
2023/03/09 02:48:38;;;;;;;15.95;7.78;;;;;;;;;;4862715;29;20029;-76
2023/03/09 02:51:06;;;;;;;15.13;8.52;;;;;;;;;;4874533;29;20084;-77
2023/03/09 02:53:32;;;;;;;12.48;8.00;;;;;;;;;;4872048;29;20416;-76
2023/03/09 02:56:01;;;;;;;11.90;7.55;;;;;;;;;;4866943;29;20041;-76
2023/03/09 02:58:27;;;;;;;13.05;7.13;;;;;;;;;;4880606;29;20499;-76
2023/03/09 03:00:53;;;;;;;14.18;7.72;;;;;;;;;;4868550;29;20116;-76
2023/03/09 03:03:20;;;;;;;9.90;5.90;;;;;;;;;;4871332;29;20115;-76
2023/03/09 03:05:46;;;;;;;13.43;7.72;;;;;;;;;;4868754;29;20041;-77
2023/03/09 03:08:12;;;;;;;11.35;7.43;;;;;;;;;;4872844;29;20047;-77
2023/03/09 03:10:38;;;;;;;9.95;6.20;;;;;;;;;;4871074;29;20036;-77
2023/03/09 03:13:04;;;;;;;10.93;6.78;;;;;;;;;;4878001;29;20044;-77
2023/03/09 03:15:31;;;;;;;7.90;5.80;;;;;;;;;;4860644;29;20029;-77
2023/03/09 03:17:57;;;;;;;10.10;6.90;;;;;;;;;;4874403;29;20147;-76
2023/03/09 03:20:23;;;;;;;12.73;8.38;;;;;;;;;;4871415;29;20029;-76
2023/03/09 03:22:49;;;;;;;12.45;7.20;;;;;;;;;;4871121;29;20032;-75
2023/03/09 03:25:16;;;;;;;11.43;6.38;;;;;;;;;;4873714;29;20539;-76
2023/03/09 03:27:42;;;;;;;9.77;6.22;;;;;;;;;;4867241;29;20025;-76
2023/03/09 03:30:09;;;;;;;12.18;6.07;;;;;;;;;;4853782;29;20114;-76
2023/03/09 03:32:35;;;;;;;15.50;5.57;;;;;;;;;;4875127;29;20033;-77
2023/03/09 03:35:01;;;;;;;10.10;5.90;;;;;;;;;;4879462;29;20032;-76
2023/03/09 03:37:27;;;;;;;8.90;5.80;;;;;;;;;;4869851;29;20060;-76
2023/03/09 03:39:54;;;;;;;8.23;5.93;;;;;;;;;;4869879;29;20039;-76
2023/03/09 03:42:20;;;;;;;10.45;6.30;;;;;;;;;;4874802;29;20090;-77
2023/03/09 03:44:46;;;;;;;9.80;5.75;;;;;;;;;;4878649;29;20048;-77
2023/03/09 03:47:12;;;;;;;10.25;5.60;;;;;;;;;;4873337;29;20025;-76
2023/03/09 03:49:38;;;;;;;7.97;5.65;;;;;;;;;;4874388;29;20479;-76
2023/03/09 03:52:04;;;;;;;10.02;6.15;;;;;;;;;;4876449;29;20045;-75
2023/03/09 03:54:30;;;;;;;9.73;6.65;;;;;;;;;;4877705;29;20838;-75
2023/03/09 03:56:56;;;;;;;12.57;5.72;;;;;;;;;;4881194;29;20119;-76
2023/03/09 03:59:22;;;;;;;9.63;6.18;;;;;;;;;;4863076;29;20395;-77
2023/03/09 04:01:49;;;;;;;9.88;6.13;;;;;;;;;;4886217;29;20093;-77
2023/03/09 04:04:15;;;;;;;10.68;6.30;;;;;;;;;;4880135;29;20163;-77
2023/03/09 04:06:41;;;;;;;10.27;5.95;;;;;;;;;;4874603;29;20052;-77
2023/03/09 04:09:07;;;;;;;14.05;6.57;;;;;;;;;;4876033;29;20044;-76
2023/03/09 04:11:33;;;;;;;9.95;6.43;;;;;;;;;;4871233;29;20029;-75
2023/03/09 04:13:59;;;;;;;12.00;5.97;;;;;;;;;;4871643;29;20100;-77
2023/03/09 04:16:25;;;;;;;13.25;7.43;;;;;;;;;;4875706;29;20567;-76
2023/03/09 04:18:51;;;;;;;8.23;5.45;;;;;;;;;;4876167;29;20063;-76
2023/03/09 04:21:18;;;;;;;9.88;6.50;;;;;;;;;;4876984;29;20037;-76
2023/03/09 04:23:44;;;;;;;9.65;6.75;;;;;;;;;;4876912;29;20037;-76
2023/03/09 04:26:10;;;;;;;12.15;7.22;;;;;;;;;;4871606;29;20057;-77
2023/03/09 04:28:36;;;;;;;8.52;5.43;;;;;;;;;;4873502;29;20032;-77
2023/03/09 04:31:02;;;;;;;13.45;6.25;;;;;;;;;;4871346;29;20063;-77
2023/03/09 04:33:28;;;;;;;11.02;5.93;;;;;;;;;;4873864;29;20039;-78
2023/03/09 04:35:54;;;;;;;9.50;6.85;;;;;;;;;;4875364;29;20040;-76
2023/03/09 04:38:21;;;;;;;10.50;7.25;;;;;;;;;;4875070;29;20036;-77
2023/03/09 04:40:47;;;;;;;8.90;6.60;;;;;;;;;;4886432;29;20040;-76
2023/03/09 04:43:13;;;;;;;10.07;6.97;;;;;;;;;;4875916;29;20116;-77
2023/03/09 04:45:39;;;;;;;7.50;5.50;;;;;;;;;;4873522;29;20025;-76
2023/03/09 04:48:05;;;;;;;13.05;6.57;;;;;;;;;;4875226;29;20081;-77
2023/03/09 04:50:34;;;;;;;11.60;7.18;;;;;;;;;;4875339;29;20506;-76
2023/03/09 04:53:00;;;;;;;9.18;6.75;;;;;;;;;;4884352;29;20392;-77
2023/03/09 04:55:26;;;;;;;12.70;7.63;;;;;;;;;;4873957;29;20107;-76
2023/03/09 04:57:52;;;;;;;14.38;6.70;;;;;;;;;;4875510;29;20041;-77
2023/03/09 05:00:18;;;;;;;15.27;6.95;;;;;;;;;;4874996;29;20101;-77
2023/03/09 05:02:44;;;;;;;11.68;6.10;;;;;;;;;;4881134;29;20031;-76
2023/03/09 05:05:10;;;;;;;13.05;7.05;;;;;;;;;;4876204;29;20044;-76
2023/03/09 05:07:36;;;;;;;11.18;6.90;;;;;;;;;;4870175;29;20025;-77
2023/03/09 05:10:03;;;;;;;12.98;7.53;;;;;;;;;;4871582;29;20273;-76
2023/03/09 05:12:31;;;;;;;11.20;7.55;;;;;;;;;;4874802;29;20029;-76
2023/03/09 05:15:00;;;;;;;12.13;7.03;;;;;;;;;;4873281;29;20044;-77
2023/03/09 05:17:26;;;;;;;13.98;7.55;;;;;;;;;;4872989;29;20036;-77
2023/03/09 05:19:52;;;;;;;12.23;7.63;;;;;;;;;;4871427;29;20029;-76
2023/03/09 05:22:18;;;;;;;11.98;7.47;;;;;;;;;;4873532;29;20060;-76
2023/03/09 05:24:45;;;;;;;12.50;7.25;;;;;;;;;;4878367;29;20033;-76
2023/03/09 05:27:12;;;;;;;11.35;7.05;;;;;;;;;;4878506;29;20032;-77
2023/03/09 05:29:39;;;;;;;12.70;8.98;;;;;;;;;;4873725;29;20103;-76
2023/03/09 05:32:05;;;;;;;10.60;6.93;;;;;;;;;;4884067;29;20145;-76
2023/03/09 05:34:31;;;;;;;12.75;6.78;;;;;;;;;;4870975;29;20441;-76
2023/03/09 05:36:57;;;;;;;13.02;7.53;;;;;;;;;;4870653;29;20025;-77
2023/03/09 05:39:24;;;;;;;11.00;7.18;;;;;;;;;;4870866;29;20353;-76
2023/03/09 05:41:50;;;;;;;13.02;8.65;;;;;;;;;;4867180;29;20100;-77
2023/03/09 05:44:16;;;;;;;12.45;6.95;;;;;;;;;;4873321;29;20488;-78
2023/03/09 05:46:42;;;;;;;12.73;7.78;;;;;;;;;;4875108;29;20029;-75
2023/03/09 05:49:08;;;;;;;17.52;7.97;;;;;;;;;;4875560;29;20037;-77
2023/03/09 05:51:34;;;;;;;14.00;7.95;;;;;;;;;;4868867;29;20132;-77
2023/03/09 05:54:00;;;;;;;14.98;8.10;;;;;;;;;;4881756;29;20024;-77
2023/03/09 05:56:26;;;;;;;13.52;8.23;;;;;;;;;;4883344;29;20136;-77
2023/03/09 05:58:52;;;;;;;12.43;8.38;;;;;;;;;;4876951;29;20385;-77
2023/03/09 06:01:20;;;;;;;12.77;7.22;;;;;;;;;;4878040;29;20029;-77
2023/03/09 06:03:46;;;;;;;10.05;6.72;;;;;;;;;;4876163;29;20029;-77
2023/03/09 06:06:12;;;;;;;15.45;8.50;;;;;;;;;;4874002;29;20376;-77
2023/03/09 06:08:38;;;;;;;11.30;6.32;;;;;;;;;;4878086;29;20035;-76
2023/03/09 06:11:05;;;;;;;11.15;6.93;;;;;;;;;;4874867;29;20077;-76
2023/03/09 06:13:31;;;;;;;15.45;9.70;;;;;;;;;;4879907;29;20035;-76
2023/03/09 06:15:57;;;;;;;14.48;7.80;;;;;;;;;;4884516;29;20024;-76
2023/03/09 06:18:23;;;;;;;12.90;8.07;;;;;;;;;;4870605;29;20116;-75
2023/03/09 06:20:49;;;;;;;11.02;7.32;;;;;;;;;;4878885;29;20040;-75
2023/03/09 06:23:16;;;;;;;10.23;6.07;;;;;;;;;;4882651;29;20033;-76
2023/03/09 06:25:42;;;;;;;16.42;7.43;;;;;;;;;;4881912;29;20036;-76
2023/03/09 06:28:08;;;;;;;11.98;7.50;;;;;;;;;;4876661;29;20395;-77
2023/03/09 06:30:34;;;;;;;10.63;6.82;;;;;;;;;;4877025;29;20049;-75
2023/03/09 06:33:01;;;;;;;14.18;8.18;;;;;;;;;;4880409;29;20036;-74
2023/03/09 06:35:27;;;;;;;13.13;6.47;;;;;;;;;;4877173;29;20025;-74
2023/03/09 06:37:53;;;;;;;13.88;7.85;;;;;;;;;;4881269;29;20025;-74
2023/03/09 06:40:19;;;;;;;11.73;8.35;;;;;;;;;;4879371;29;20037;-76
2023/03/09 06:42:46;;;;;;;10.55;6.35;;;;;;;;;;4872585;29;20025;-76
2023/03/09 06:45:12;;;;;;;9.50;5.85;;;;;;;;;;4872142;29;20100;-76
2023/03/09 06:47:38;;;;;;;9.80;6.13;;;;;;;;;;4870081;29;20411;-75
2023/03/09 06:50:04;;;;;;;11.27;5.97;;;;;;;;;;4875691;29;20029;-75
2023/03/09 06:52:31;;;;;;;11.10;5.43;;;;;;;;;;4879152;29;20033;-75
2023/03/09 06:54:57;;;;;;;9.98;5.25;;;;;;;;;;4883366;29;20074;-74
2023/03/09 06:57:23;;;;;;;10.73;5.72;;;;;;;;;;4882112;29;20543;-75
2023/03/09 06:59:50;;;;;;;8.68;5.57;;;;;;;;;;4881456;29;20033;-74
2023/03/09 07:02:16;;;;;;;11.48;6.57;;;;;;;;;;4885549;29;20033;-75
2023/03/09 07:04:42;;;;;;;11.90;6.40;;;;;;;;;;4871892;29;20021;-75
2023/03/09 07:07:09;;;;;;;12.90;7.25;;;;;;;;;;4875033;29;20260;-76
2023/03/09 07:09:35;;;;;;;13.85;7.32;;;;;;;;;;4869774;29;20037;-76
2023/03/09 07:12:01;;;;;;;11.82;6.88;;;;;;;;;;4875183;29;20096;-74
2023/03/09 07:14:27;;;;;;;13.82;7.07;;;;;;;;;;4872646;29;20025;-76
2023/03/09 07:16:54;;;;;;;13.77;7.28;;;;;;;;;;4867661;29;20041;-75
2023/03/09 07:19:20;;;;;;;11.35;6.63;;;;;;;;;;4868484;29;20128;-74
2023/03/09 07:21:47;;;;;;;12.55;7.53;;;;;;;;;;4870689;29;20044;-76
2023/03/09 07:24:13;;;;;;;11.98;7.00;;;;;;;;;;4869844;29;20498;-74
2023/03/09 07:26:39;;;;;;;12.73;6.55;;;;;;;;;;4865116;29;20017;-75
2023/03/09 07:29:05;;;;;;;11.45;5.25;;;;;;;;;;4871474;29;20029;-75
2023/03/09 07:31:31;;;;;;;10.90;6.10;;;;;;;;;;4875925;29;20051;-75
2023/03/09 07:33:58;;;;;;;9.15;6.22;;;;;;;;;;4872460;29;20021;-75
2023/03/09 07:36:24;;;;;;;13.35;6.93;;;;;;;;;;4868834;29;20116;-76
2023/03/09 07:38:50;;;;;;;10.13;6.20;;;;;;;;;;4881971;29;20029;-74
2023/03/09 07:41:17;;;;;;;11.05;5.88;;;;;;;;;;4876982;29;20063;-75
2023/03/09 07:43:46;;;;;;;8.05;5.30;;;;;;;;;;4871798;29;20503;-75
2023/03/09 07:46:15;;;;;;;9.18;5.07;;;;;;;;;;4858758;29;20029;-78
2023/03/09 07:48:41;;;;;;;9.45;6.57;;;;;;;;;;4876925;29;20025;-76
2023/03/09 07:51:07;;;;;;;10.88;6.43;;;;;;;;;;4873275;29;20044;-76
2023/03/09 07:53:34;;;;;;;11.20;5.93;;;;;;;;;;4880165;29;20440;-75
2023/03/09 07:56:03;;;;;;;15.18;5.90;;;;;;;;;;4866554;29;20068;-76
2023/03/09 07:58:30;;;;;;;10.85;5.28;;;;;;;;;;4872470;29;20034;-75
2023/03/09 08:00:56;;;;;;;8.75;5.25;;;;;;;;;;4872940;29;20385;-75
2023/03/09 08:03:23;;;;;;;8.45;5.25;;;;;;;;;;4880239;29;20467;-75
2023/03/09 08:05:55;;;;;;;8.32;5.50;;;;;;;;;;4872668;29;20220;-74
2023/03/09 08:08:22;;;;;;;8.32;4.32;;;;;;;;;;4869274;29;20037;-75
2023/03/09 08:10:48;;;;;;;8.05;5.10;;;;;;;;;;4867823;29;20043;-75
2023/03/09 08:13:14;;;;;;;8.52;5.30;;;;;;;;;;4869865;29;20028;-75
2023/03/09 08:15:40;;;;;;;8.98;5.22;;;;;;;;;;4871186;29;20555;-75
2023/03/09 08:18:07;;;;;;;7.40;4.82;;;;;;;;;;4872000;29;20045;-75
2023/03/09 08:20:33;;;;;;;9.73;4.78;;;;;;;;;;4870162;29;20415;-76
2023/03/09 08:22:59;;;;;;;9.65;4.88;;;;;;;;;;4870946;29;20061;-76
2023/03/09 08:25:26;;;;;;;8.82;5.35;;;;;;;;;;4873510;29;20052;-75
2023/03/09 08:27:52;;;;;;;7.70;4.68;;;;;;;;;;4874396;29;20400;-75
2023/03/09 08:30:20;;;;;;;6.55;4.95;;;;;;;;;;4875817;29;20089;-74
2023/03/09 08:32:47;;;;;;;8.23;4.65;;;;;;;;;;4875307;29;20029;-75
2023/03/09 08:35:14;;;;;;;8.23;5.00;;;;;;;;;;4874363;29;20030;-75
2023/03/09 08:37:40;;;;;;;10.75;5.70;;;;;;;;;;4850622;29;20029;-75
2023/03/09 08:40:07;;;;;;;6.82;4.40;;;;;;;;;;4872286;29;20052;-76
2023/03/09 08:42:33;;;;;;;8.77;4.63;;;;;;;;;;4870529;29;20364;-76
2023/03/09 08:45:00;;;;;;;6.18;4.03;;;;;;;;;;4876539;29;20116;-75
2023/03/09 08:47:26;;;;;;;6.20;4.35;;;;;;;;;;4874445;29;20017;-74
2023/03/09 08:49:52;;;;;;;9.82;4.95;;;;;;;;;;4872296;29;20064;-75
2023/03/09 08:52:18;;;;;;;8.68;4.60;;;;;;;;;;4876667;29;20060;-75
2023/03/09 08:54:44;;;;;;;9.20;4.82;;;;;;;;;;4867297;29;20095;-76
2023/03/09 08:57:11;;;;;;;7.70;4.30;;;;;;;;;;4872457;29;20033;-75
2023/03/09 08:59:38;;;;;;;6.97;4.25;;;;;;;;;;4870294;29;20033;-74
2023/03/09 09:02:04;;;;;;;7.65;4.43;;;;;;;;;;4882699;29;20451;-75
2023/03/09 09:04:30;;;;;;;9.25;4.70;;;;;;;;;;4870266;29;20111;-75
2023/03/09 09:06:57;;;;;;;7.57;5.63;;;;;;;;;;4863328;29;20113;-75
2023/03/09 09:09:23;;;;;;;8.27;4.50;;;;;;;;;;4872759;29;20282;-75
2023/03/09 09:11:49;;;;;;;7.82;4.95;;;;;;;;;;4876097;29;20091;-73
2023/03/09 09:14:16;;;;;;;6.15;4.32;;;;;;;;;;4876169;29;20044;-74
2023/03/09 09:16:42;;;;;;;5.90;4.10;;;;;;;;;;4869667;29;20028;-75
2023/03/09 09:19:08;;;;;;;5.63;4.18;;;;;;;;;;4878447;29;20105;-74
2023/03/09 09:21:34;;;;;;;12.52;6.95;;;;;;;;;;4878254;29;20038;-74
2023/03/09 09:24:00;;;;;;;6.25;3.85;;;;;;;;;;4876336;29;20079;-75
2023/03/09 09:26:26;;;;;;;6.28;3.80;;;;;;;;;;4873756;29;20086;-75
2023/03/09 09:28:53;;;;;;;6.47;4.40;;;;;;;;;;4873250;29;20499;-75
2023/03/09 09:31:20;;;;;;;4.95;4.45;;;;;;;;;;4867700;29;20095;-76
2023/03/09 09:33:47;;;;;;;6.35;3.72;;;;;;;;;;4885092;29;20236;-75
2023/03/09 09:36:15;;;;;;;5.00;3.80;;;;;;;;;;4855837;29;20048;-76
2023/03/09 09:38:42;;;;;;;7.38;4.57;;;;;;;;;;4856151;29;20202;-76
2023/03/09 09:41:08;;;;;;;8.90;4.75;;;;;;;;;;4861340;29;20021;-76
2023/03/09 09:43:35;;;;;;;17.23;7.75;;;;;;;;;;4867648;29;20567;-76
2023/03/09 09:46:01;;;;;;;19.65;7.80;;;;;;;;;;4868817;29;20076;-76
2023/03/09 09:48:28;;;;;;;9.73;5.22;;;;;;;;;;4874037;29;20036;-76
2023/03/09 09:51:13;;;;;;;16.88;5.63;;;;;;;;;;4870004;29;20522;-77
2023/03/09 09:53:58;;;;;;;9.53;6.57;;;;;;;;;;4866672;29;20045;-76
2023/03/09 09:56:27;;;;;;;6.40;4.43;;;;;;;;;;4870073;29;20064;-76
2023/03/09 09:58:54;;;;;;;9.18;5.50;;;;;;;;;;4877035;29;20044;-76
2023/03/09 10:01:36;;;;;;;8.77;5.63;;;;;;;;;;4864195;29;20036;-76
2023/03/09 10:04:05;;;;;;;9.60;5.25;;;;;;;;;;4866201;29;20364;-74
2023/03/09 10:06:32;;;;;;;6.07;3.95;;;;;;;;;;4869772;29;20029;-75
2023/03/09 10:09:06;;;;;;;10.25;4.47;;;;;;;;;;4870392;29;20032;-74
2023/03/09 10:11:37;;;;;;;4.32;3.30;;;;;;;;;;4872100;29;20025;-75
2023/03/09 10:14:22;;;;;;;7.30;4.20;;;;;;;;;;4863351;29;20488;-75
2023/03/09 10:17:00;;;;;;;6.50;3.53;;;;;;;;;;4865626;29;20029;-75
2023/03/09 10:19:29;;;;;;;4.05;2.58;;;;;;;;;;4875560;29;20051;-75
2023/03/09 10:21:57;;;;;;;8.35;3.92;;;;;;;;;;4873222;29;20030;-76
2023/03/09 10:24:27;;;;;;;9.77;4.10;;;;;;;;;;4875754;29;20049;-77
2023/03/09 10:27:08;;;;;;;6.30;3.83;;;;;;;;;;4876973;29;20432;-76
2023/03/09 10:29:53;;;;;;;5.43;3.97;;;;;;;;;;4876563;29;20033;-76
2023/03/09 10:32:19;;;;;;;3.00;2.70;;;;;;;;;;4872120;29;20087;-75
2023/03/09 10:35:08;;;;;;;5.60;3.47;;;;;;;;;;4880145;29;20033;-74
2023/03/09 10:37:35;;;;;;;3.03;2.42;;;;;;;;;;4853331;29;20045;-75
2023/03/09 10:40:17;;;;;;;4.05;3.03;;;;;;;;;;4874523;29;20029;-75
2023/03/09 10:42:43;;;;;;;2.92;2.60;;;;;;;;;;4874194;29;20378;-74
2023/03/09 10:45:18;;;;;;;3.58;2.38;;;;;;;;;;4870697;29;20033;-75
2023/03/09 10:47:47;;;;;;;2.63;2.30;;;;;;;;;;4876449;29;20108;-75
2023/03/09 10:50:14;;;;;;;3.75;2.70;;;;;;;;;;4861624;29;20034;-74
2023/03/09 10:52:40;;;;;;;2.75;2.47;;;;;;;;;;4871307;29;20089;-75
2023/03/09 10:55:25;;;;;;;3.58;2.72;;;;;;;;;;4873850;29;20035;-75
2023/03/09 10:57:58;;;;;;;2.92;2.25;;;;;;;;;;4863580;29;20080;-75
2023/03/09 11:00:25;;;;;;;3.25;2.38;;;;;;;;;;4869368;29;20033;-75
2023/03/09 11:02:53;;;;;;;5.03;2.58;;;;;;;;;;4873372;29;20036;-75
2023/03/09 11:05:20;;;;;;;4.82;2.40;;;;;;;;;;4876308;29;20778;-76
2023/03/09 11:07:52;;;;;;;2.08;1.88;;;;;;;;;;4874266;29;20041;-75
2023/03/09 11:10:23;;;;;;;2.25;1.98;;;;;;;;;;4866508;29;20037;-75
2023/03/09 11:12:49;;;;;;;4.43;2.20;;;;;;;;;;4872520;29;20022;-75
2023/03/09 11:15:15;;;;;;;3.20;2.33;;;;;;;;;;4876409;29;20112;-74
2023/03/09 11:17:42;;;;;;;5.10;2.53;;;;;;;;;;4876974;29;20041;-76
2023/03/09 11:20:28;;;;;;;2.78;2.17;;;;;;;;;;4880190;29;20033;-74
2023/03/09 11:23:00;;;;;;;5.50;3.00;;;;;;;;;;4868239;29;20025;-75
2023/03/09 11:25:40;;;;;;;4.63;3.55;;;;;;;;;;4875609;29;20033;-74
2023/03/09 11:28:12;;;;;;;3.13;2.80;;;;;;;;;;4874941;29;20052;-74
2023/03/09 11:30:40;;;;;;;4.60;2.58;;;;;;;;;;4870597;29;20053;-75
2023/03/09 11:33:10;;;;;;;4.93;3.35;;;;;;;;;;4871119;29;20060;-75
2023/03/09 11:35:36;;;;;;;5.10;3.00;;;;;;;;;;4877307;29;20387;-75
2023/03/09 11:38:04;;;;;;;6.85;4.60;;;;;;;;;;4871265;29;20167;-75
2023/03/09 11:40:33;;;;;;;7.22;3.30;;;;;;;;;;4874395;29;20109;-75
2023/03/09 11:43:07;;;;;;;4.82;3.47;;;;;;;;;;4872868;29;20605;-74
2023/03/09 11:45:34;;;;;;;10.15;5.50;;;;;;;;;;4876152;29;20044;-75
2023/03/09 11:48:01;;;;;;;4.90;4.13;;;;;;;;;;4876272;29;20032;-75
2023/03/09 11:50:48;;;;;;;5.35;3.90;;;;;;;;;;4883930;29;20461;-74
2023/03/09 11:53:17;;;;;;;7.10;4.80;;;;;;;;;;4868730;29;20021;-76
2023/03/09 11:55:46;;;;;;;10.82;6.72;;;;;;;;;;4864684;29;20060;-75
2023/03/09 11:58:16;;;;;;;4.63;3.97;;;;;;;;;;4872339;29;20041;-75
2023/03/09 12:00:46;;;;;;;8.48;4.68;;;;;;;;;;4867584;29;20491;-75
2023/03/09 12:03:15;;;;;;;8.40;4.97;;;;;;;;;;4872751;29;20214;-76
2023/03/09 12:05:45;;;;;;;6.68;4.22;;;;;;;;;;4871814;29;20780;-76
2023/03/09 12:08:21;;;;;;;3.33;2.70;;;;;;;;;;4877792;29;20035;-75
2023/03/09 12:10:47;;;;;;;3.95;3.00;;;;;;;;;;4873658;29;20213;-74
2023/03/09 12:13:16;;;;;;;5.43;4.93;;;;;;;;;;4868659;29;20034;-74
2023/03/09 12:15:53;;;;;;;4.75;3.97;;;;;;;;;;4873199;29;20096;-75
2023/03/09 12:18:27;;;;;;;3.80;3.50;;;;;;;;;;4868278;29;20511;-76
2023/03/09 12:20:54;;;;;;;5.88;3.17;;;;;;;;;;4875635;29;20491;-77
2023/03/09 12:23:36;;;;;;;3.53;3.20;;;;;;;;;;4868567;29;20037;-74
2023/03/09 12:26:04;;;;;;;5.10;3.30;;;;;;;;;;4869767;29;20029;-75
2023/03/09 12:28:30;;;;;;;7.78;4.53;;;;;;;;;;4867911;29;20475;-76
2023/03/09 12:30:57;;;;;;;7.65;5.28;;;;;;;;;;4871760;29;20083;-75
2023/03/09 12:33:41;;;;;;;7.53;4.15;;;;;;;;;;4869074;29;20025;-75
2023/03/09 12:36:27;;;;;;;5.53;3.10;;;;;;;;;;4870756;29;20116;-74
2023/03/09 12:39:12;;;;;;;9.88;3.42;;;;;;;;;;4871385;29;20048;-74
2023/03/09 12:41:56;;;;;;;6.63;4.20;;;;;;;;;;4876516;29;20578;-74
2023/03/09 12:44:41;;;;;;;9.98;5.15;;;;;;;;;;4875030;29;20113;-74
2023/03/09 12:47:21;;;;;;;10.02;6.57;;;;;;;;;;4873424;29;20044;-75
2023/03/09 12:49:49;;;;;;;8.60;5.78;;;;;;;;;;4868041;29;20033;-75
2023/03/09 12:52:21;;;;;;;8.48;4.68;;;;;;;;;;4862122;29;20037;-75
2023/03/09 12:54:54;;;;;;;7.93;4.97;;;;;;;;;;4865608;29;20089;-75
2023/03/09 12:57:21;;;;;;;8.90;5.10;;;;;;;;;;4871459;29;20033;-74
2023/03/09 12:59:49;;;;;;;8.70;5.43;;;;;;;;;;4867359;29;20195;-74
2023/03/09 13:02:31;;;;;;;7.35;5.15;;;;;;;;;;4870209;29;20033;-74
2023/03/09 13:05:18;;;;;;;4.60;3.95;;;;;;;;;;4885948;29;20048;-73
2023/03/09 13:07:44;;;;;;;5.10;3.65;;;;;;;;;;4876339;29;20230;-73
2023/03/09 13:10:26;;;;;;;4.35;3.38;;;;;;;;;;4872963;29;20068;-76
2023/03/09 13:12:56;;;;;;;4.57;3.33;;;;;;;;;;4882450;29;20040;-75
2023/03/09 13:15:27;;;;;;;6.32;2.90;;;;;;;;;;4870937;29;20575;-75
2023/03/09 13:18:13;;;;;;;5.72;2.95;;;;;;;;;;4874396;29;20056;-77
2023/03/09 13:20:43;;;;;;;4.22;3.33;;;;;;;;;;4869130;29;20387;-77
2023/03/09 13:23:11;;;;;;;4.05;3.13;;;;;;;;;;4877454;29;20083;-77
2023/03/09 13:25:46;;;;;;;7.35;3.92;;;;;;;;;;4866082;29;20549;-77
2023/03/09 13:28:14;;;;;;;4.45;3.38;;;;;;;;;;4869840;29;21128;-78
2023/03/09 13:30:42;;;;;;;5.07;3.20;;;;;;;;;;4872351;29;20053;-78
2023/03/09 13:33:14;;;;;;;4.47;3.08;;;;;;;;;;4877271;29;20063;-77
2023/03/09 13:35:42;;;;;;;10.50;4.00;;;;;;;;;;4870988;29;20052;-78
2023/03/09 13:38:18;;;;;;;6.18;3.72;;;;;;;;;;4868404;29;20036;-77
2023/03/09 13:40:48;;;;;;;5.30;2.85;;;;;;;;;;4867704;29;20040;-80
2023/03/09 13:43:18;;;;;;;9.38;4.28;;;;;;;;;;4868006;29;20878;-78
2023/03/09 13:45:54;;;;;;;4.97;3.55;;;;;;;;;;4873160;29;20079;-79
2023/03/09 13:48:20;;;;;;;5.47;4.05;;;;;;;;;;4882259;29;20053;-77
2023/03/09 13:50:47;;;;;;;4.78;2.45;;;;;;;;;;4870601;29;20112;-77
2023/03/09 13:53:15;;;;;;;4.93;3.10;;;;;;;;;;4866280;29;20040;-76
2023/03/09 13:55:53;;;;;;;3.40;2.65;;;;;;;;;;4869603;29;20144;-77
2023/03/09 13:58:24;;;;;;;4.78;3.20;;;;;;;;;;4863466;29;20124;-78
2023/03/09 14:01:01;;;;;;;6.25;3.30;;;;;;;;;;4871467;29;20036;-78
2023/03/09 14:03:29;;;;;;;6.90;3.13;;;;;;;;;;4865863;29;20341;-77
2023/03/09 14:06:03;;;;;;;6.15;3.55;;;;;;;;;;4865875;29;20032;-78
2023/03/09 14:08:33;;;;;;;6.57;3.50;;;;;;;;;;4863800;29;20037;-77
2023/03/09 14:11:04;;;;;;;5.32;3.45;;;;;;;;;;4871359;29;20029;-77
2023/03/09 14:13:30;;;;;;;9.88;3.78;;;;;;;;;;4874012;29;20037;-78
2023/03/09 14:15:56;;;;;;;5.25;3.30;;;;;;;;;;4862215;29;20116;-77
2023/03/09 14:18:22;;;;;;;4.22;3.40;;;;;;;;;;4869557;29;20025;-76
2023/03/09 14:20:48;;;;;;;4.40;3.50;;;;;;;;;;4867614;29;20530;-76
2023/03/09 14:23:15;;;;;;;7.10;5.13;;;;;;;;;;4866309;29;20033;-76
2023/03/09 14:25:42;;;;;;;7.55;4.90;;;;;;;;;;4871150;29;20120;-76
2023/03/09 14:28:43;;;;;;;3.88;3.38;;;;;;;;;;4869921;29;20410;-76
2023/03/09 14:31:22;;;;;;;8.15;4.50;;;;;;;;;;4804363;29;20079;-77
2023/03/09 14:34:01;;;;;;;5.90;4.22;;;;;;;;;;4865635;29;20482;-78
2023/03/09 14:36:34;;;;;;;5.50;4.65;;;;;;;;;;4865653;29;20036;-76
2023/03/09 14:39:01;;;;;;;7.32;4.53;;;;;;;;;;4868698;29;20052;-77
2023/03/09 14:41:29;;;;;;;7.50;4.68;;;;;;;;;;4863792;29;20041;-76
2023/03/09 14:43:55;;;;;;;6.45;4.35;;;;;;;;;;4867565;29;20037;-77